Detroit, Michigan
Traffic Map
Current Weather Conditions
Detroit, Michigan
Few Clouds
Few Clouds
73°
Feels Like: 73°
Wind Chill: 73° Ceiling: Unl
Heat Index: 73° Visibility: 15mi
Dew Point: 55° Wind: 7mph
Humidity: 53% Direction: 160° (SSE)
Pressure: 30.07in Gusts: 0mph
Raw Report DataCYQG 292200Z 16006KT 15SM FEW120 FEW180 FEW270 23/13 A3007 RMK AC1AC1CI2 SLP181
Traffic Incident Summary
Active as of:
Severity:
Category:
InformationThere was an issue retrieving the traffic information for this location. Please try a different location or try again shortly.
Advertisements
Track Severe Weather on mobile